createdAt,value
2022-12-27T00:01:06.773Z,100644.88
2022-12-27T00:03:36.948Z,100652.44
2022-12-27T00:06:03.307Z,100661.66
2022-12-27T00:08:29.609Z,100660.66
2022-12-27T00:10:56.959Z,100660.13
2022-12-27T00:13:24.212Z,100673.34
2022-12-27T00:15:50.824Z,100667.22
2022-12-27T00:18:17.123Z,100674.50
2022-12-27T00:23:15.966Z,100672.84
2022-12-27T00:25:42.277Z,100664.31
2022-12-27T00:28:09.961Z,100662.88
2022-12-27T00:30:36.250Z,100680.78
2022-12-27T00:33:02.577Z,100675.78
2022-12-27T00:35:28.881Z,100668.91
2022-12-27T00:37:55.187Z,100687.16
2022-12-27T00:42:52.919Z,100704.78
2022-12-27T00:45:19.212Z,100719.16
2022-12-27T00:50:16.918Z,100732.44
2022-12-27T00:52:43.233Z,100736.75
2022-12-27T00:55:10.122Z,100736.00
2022-12-27T00:57:36.439Z,100739.47
2022-12-27T01:00:09.563Z,100756.19
2022-12-27T01:02:36.565Z,100753.22
2022-12-27T01:05:02.883Z,100756.31
2022-12-27T01:07:29.187Z,100756.00
2022-12-27T01:09:55.515Z,100762.72
2022-12-27T01:12:21.834Z,100760.41
2022-12-27T01:14:48.128Z,100768.03
2022-12-27T01:17:14.427Z,100774.12
2022-12-27T01:19:40.783Z,100786.31
2022-12-27T01:22:07.235Z,100789.75
2022-12-27T01:24:33.570Z,100795.78
2022-12-27T01:29:31.987Z,100794.19
2022-12-27T01:34:29.968Z,100803.63
2022-12-27T01:39:27.939Z,100807.00
2022-12-27T01:44:49.675Z,100820.13
2022-12-27T01:47:16.143Z,100817.50
2022-12-27T01:52:13.908Z,100823.72
2022-12-27T01:54:40.220Z,100829.78
2022-12-27T01:57:06.599Z,100827.94
2022-12-27T01:59:32.925Z,100826.78
2022-12-27T02:01:59.524Z,100829.19
2022-12-27T02:04:25.956Z,100831.38
2022-12-27T02:06:52.275Z,100841.03
2022-12-27T02:09:18.623Z,100842.25
2022-12-27T02:11:55.277Z,100838.97
2022-12-27T02:14:26.167Z,100818.22
2022-12-27T02:16:54.368Z,100822.12
2022-12-27T02:21:52.883Z,100822.88
2022-12-27T02:24:19.199Z,100831.50
2022-12-27T02:29:16.902Z,100850.59
2022-12-27T02:31:43.281Z,100863.69
2022-12-27T02:34:09.587Z,100875.06
2022-12-27T02:36:35.963Z,100869.12
2022-12-27T02:39:02.288Z,100870.31
2022-12-27T02:41:47.414Z,100873.25
2022-12-27T02:44:32.401Z,100878.59
2022-12-27T02:47:17.368Z,100879.66
2022-12-27T02:50:02.638Z,100890.66
2022-12-27T02:52:47.859Z,100899.50
2022-12-27T02:55:14.159Z,100890.84
2022-12-27T02:57:40.456Z,100894.84
2022-12-27T03:00:28.591Z,100902.81
2022-12-27T03:03:13.544Z,100902.59
2022-12-27T03:05:40.327Z,100909.22
2022-12-27T03:08:06.633Z,100928.81
2022-12-27T03:13:42.874Z,100940.16
2022-12-27T03:16:09.310Z,100940.47
2022-12-27T03:18:35.701Z,100944.06
2022-12-27T03:21:20.898Z,100941.38
2022-12-27T03:26:37.885Z,100940.28
2022-12-27T03:29:22.985Z,100944.53
2022-12-27T03:32:07.965Z,100950.91
2022-12-27T03:34:38.460Z,100955.22
2022-12-27T03:37:23.640Z,100954.66
2022-12-27T03:39:49.946Z,100966.34
2022-12-27T03:42:38.995Z,100970.75
2022-12-27T03:45:05.330Z,100970.22
2022-12-27T03:47:31.633Z,100987.06
2022-12-27T03:49:57.945Z,100985.69
2022-12-27T03:52:27.862Z,100982.37
2022-12-27T03:54:54.174Z,100979.94
2022-12-27T03:57:20.482Z,100981.91
2022-12-27T03:59:46.792Z,100986.59
2022-12-27T04:02:13.166Z,100991.28
2022-12-27T04:04:42.948Z,100992.66
2022-12-27T04:07:09.236Z,101004.00
2022-12-27T04:12:44.937Z,100991.84
2022-12-27T04:18:19.556Z,100999.81
2022-12-27T04:21:04.615Z,101002.59
2022-12-27T04:23:49.535Z,101009.47
2022-12-27T04:29:24.754Z,101015.59
2022-12-27T04:32:11.908Z,101014.22
2022-12-27T04:34:44.234Z,101016.44
2022-12-27T04:37:10.691Z,101007.34
2022-12-27T04:39:36.998Z,101005.72
2022-12-27T04:42:22.181Z,101000.72
2022-12-27T04:45:15.156Z,101002.34
2022-12-27T04:48:00.439Z,101013.13
2022-12-27T04:50:45.511Z,101006.25
2022-12-27T04:53:30.518Z,101005.97
2022-12-27T04:55:56.927Z,101003.50
2022-12-27T04:58:23.224Z,101003.75
2022-12-27T05:01:13.973Z,101001.84
2022-12-27T05:03:40.712Z,101013.44
2022-12-27T05:06:07.036Z,101020.59
2022-12-27T05:09:07.155Z,101031.34
2022-12-27T05:11:52.128Z,101025.59
2022-12-27T05:14:18.803Z,101024.47
2022-12-27T05:16:45.191Z,101031.62
2022-12-27T05:19:12.125Z,101043.22
2022-12-27T05:21:38.430Z,101031.62
2022-12-27T05:24:23.625Z,101037.16
2022-12-27T05:26:49.974Z,101029.97
2022-12-27T05:29:16.279Z,101031.38
2022-12-27T05:31:42.664Z,101034.13
2022-12-27T05:34:10.137Z,101036.59
2022-12-27T05:36:36.455Z,101037.13
2022-12-27T05:39:02.763Z,101048.75
2022-12-27T05:41:32.743Z,101044.59
2022-12-27T05:44:03.417Z,101042.38
2022-12-27T05:46:35.682Z,101056.47
2022-12-27T05:49:02.031Z,101061.16
2022-12-27T05:56:31.873Z,101054.50
2022-12-27T05:58:58.417Z,101063.91
2022-12-27T06:03:55.828Z,101068.59
2022-12-27T06:06:25.844Z,101054.81
2022-12-27T06:08:52.148Z,101050.37
2022-12-27T06:11:18.482Z,101063.59
2022-12-27T06:13:44.793Z,101069.69
2022-12-27T06:16:11.183Z,101074.09
2022-12-27T06:18:37.514Z,101073.00
2022-12-27T06:23:35.822Z,101079.62
2022-12-27T06:26:02.326Z,101077.97
2022-12-27T06:28:28.648Z,101082.13
2022-12-27T06:30:55.020Z,101082.94
2022-12-27T06:33:21.338Z,101069.94
2022-12-27T06:35:47.644Z,101084.34
2022-12-27T06:38:13.968Z,101085.75
2022-12-27T06:40:43.882Z,101093.19
2022-12-27T06:43:10.189Z,101080.75
2022-12-27T06:45:36.523Z,101098.16
2022-12-27T06:48:02.850Z,101095.09
2022-12-27T06:50:29.153Z,101109.19
2022-12-27T06:55:26.857Z,101116.06
2022-12-27T06:57:53.163Z,101110.56
2022-12-27T07:00:20.873Z,101119.41
2022-12-27T07:02:47.956Z,101115.53
2022-12-27T07:05:14.479Z,101133.19
2022-12-27T07:07:40.780Z,101140.66
2022-12-27T07:10:10.815Z,101139.84
2022-12-27T07:12:37.539Z,101133.75
2022-12-27T07:15:03.877Z,101152.25
2022-12-27T07:17:30.205Z,101155.28
2022-12-27T07:19:56.500Z,101165.50
2022-12-27T07:22:26.959Z,101162.97
2022-12-27T07:24:53.266Z,101154.16
2022-12-27T07:27:19.576Z,101166.31
2022-12-27T07:29:46.048Z,101158.31
2022-12-27T07:32:12.389Z,101176.25
2022-12-27T07:34:41.755Z,101175.72
2022-12-27T07:37:08.111Z,101174.06
2022-12-27T07:39:34.421Z,101179.59
2022-12-27T07:42:06.274Z,101187.59
2022-12-27T07:44:34.580Z,101198.09
2022-12-27T07:47:00.923Z,101174.62
2022-12-27T07:49:27.218Z,101195.06
2022-12-27T07:51:53.539Z,101184.31
2022-12-27T07:54:23.856Z,101197.53
2022-12-27T07:56:50.195Z,101208.03
2022-12-27T07:59:16.529Z,101202.25
2022-12-27T08:04:35.800Z,101217.16
2022-12-27T08:07:02.187Z,101208.88
2022-12-27T08:09:31.782Z,101210.25
2022-12-27T08:11:58.344Z,101205.28
2022-12-27T08:14:24.650Z,101230.44
2022-12-27T08:16:51.116Z,101231.53
2022-12-27T08:19:17.809Z,101227.94
2022-12-27T08:21:44.102Z,101230.16
2022-12-27T08:24:10.492Z,101232.88
2022-12-27T08:26:36.831Z,101238.38
2022-12-27T08:29:03.196Z,101240.28
2022-12-27T08:31:29.542Z,101247.75
2022-12-27T08:33:58.654Z,101245.28
2022-12-27T08:38:56.782Z,101239.53
2022-12-27T08:41:23.133Z,101232.00
2022-12-27T08:43:49.620Z,101232.84
2022-12-27T08:46:16.072Z,101231.47
2022-12-27T08:48:42.500Z,101229.56
2022-12-27T08:51:12.914Z,101244.16
2022-12-27T08:53:41.840Z,101238.59
2022-12-27T08:56:08.242Z,101251.97
2022-12-27T08:58:34.820Z,101235.06
2022-12-27T09:01:01.158Z,101248.88
2022-12-27T09:03:27.514Z,101261.09
2022-12-27T09:05:53.923Z,101254.16
2022-12-27T09:08:20.234Z,101261.91
2022-12-27T09:10:46.561Z,101260.22
2022-12-27T09:13:12.862Z,101283.19
2022-12-27T09:15:42.747Z,101277.37
2022-12-27T09:18:09.196Z,101272.13
2022-12-27T09:20:35.671Z,101263.53
2022-12-27T09:23:01.976Z,101261.31
2022-12-27T09:25:28.371Z,101270.38
2022-12-27T09:27:55.309Z,101254.84
2022-12-27T09:30:24.778Z,101257.41
2022-12-27T09:32:51.093Z,101251.53
2022-12-27T09:37:48.797Z,101249.66
2022-12-27T09:40:15.106Z,101250.59
2022-12-27T09:43:01.991Z,101234.75
2022-12-27T09:45:27.746Z,101249.31
2022-12-27T09:47:54.074Z,101247.53
2022-12-27T09:50:20.396Z,101232.75
2022-12-27T09:52:47.775Z,101228.25
2022-12-27T09:55:14.087Z,101236.63
2022-12-27T09:57:40.438Z,101230.56
2022-12-27T10:00:06.742Z,101216.34
2022-12-27T10:02:33.202Z,101236.22
2022-12-27T10:07:31.717Z,101205.09
2022-12-27T10:09:58.039Z,101211.00
2022-12-27T10:14:58.435Z,101207.25
2022-12-27T10:17:24.759Z,101214.53
2022-12-27T10:19:51.166Z,101199.47
2022-12-27T10:22:17.527Z,101214.81
2022-12-27T10:27:15.781Z,101205.72
2022-12-27T10:29:42.711Z,101210.31
2022-12-27T10:34:40.718Z,101194.88
2022-12-27T10:37:07.030Z,101204.25
2022-12-27T10:39:33.344Z,101196.06
2022-12-27T10:41:59.657Z,101201.31
2022-12-27T10:44:26.084Z,101216.91
2022-12-27T10:46:52.482Z,101203.25
2022-12-27T10:49:21.251Z,101220.03
2022-12-27T10:51:49.302Z,101205.47
2022-12-27T10:54:15.633Z,101220.75
2022-12-27T10:56:41.966Z,101201.25
2022-12-27T10:59:08.812Z,101209.75
2022-12-27T11:01:35.362Z,101211.12
2022-12-27T11:04:03.702Z,101210.47
2022-12-27T11:06:30.023Z,101212.50
2022-12-27T11:08:56.341Z,101202.87
2022-12-27T11:11:22.766Z,101207.44
2022-12-27T11:13:49.193Z,101208.03
2022-12-27T11:16:15.524Z,101202.50
2022-12-27T11:18:41.859Z,101208.22
2022-12-27T11:21:10.632Z,101218.97
2022-12-27T11:23:41.633Z,101208.78
2022-12-27T11:28:39.723Z,101215.28
2022-12-27T11:31:06.055Z,101217.63
2022-12-27T11:36:03.715Z,101220.25
2022-12-27T11:38:33.709Z,101231.28
2022-12-27T11:41:00.025Z,101221.13
2022-12-27T11:45:59.692Z,101224.59
2022-12-27T11:48:26.334Z,101223.87
2022-12-27T11:50:52.695Z,101210.78
2022-12-27T11:53:19.010Z,101220.88
2022-12-27T11:55:45.339Z,101239.94
2022-12-27T11:58:11.652Z,101234.00
2022-12-27T12:03:09.738Z,101238.16
2022-12-27T12:05:37.639Z,101230.41
2022-12-27T12:08:03.964Z,101235.16
2022-12-27T12:10:30.274Z,101226.81
2022-12-27T12:12:56.581Z,101210.88
2022-12-27T12:15:22.886Z,101213.16
2022-12-27T12:17:49.276Z,101207.56
2022-12-27T12:20:15.900Z,101212.00
2022-12-27T12:22:42.201Z,101202.47
2022-12-27T12:25:08.592Z,101201.19
2022-12-27T12:30:06.683Z,101203.00
2022-12-27T12:32:34.664Z,101200.25
2022-12-27T12:35:00.999Z,101198.97
2022-12-27T12:37:27.309Z,101206.63
2022-12-27T12:42:26.679Z,101212.34
2022-12-27T12:44:53.198Z,101216.50
2022-12-27T12:49:52.690Z,101222.25
2022-12-27T12:52:19.349Z,101221.22
2022-12-27T12:54:46.866Z,101225.03
2022-12-27T12:57:13.240Z,101227.41
2022-12-27T12:59:39.555Z,101231.00
2022-12-27T13:02:06.046Z,101225.81
2022-12-27T13:04:32.562Z,101231.72
2022-12-27T13:06:58.879Z,101230.91
2022-12-27T13:09:25.221Z,101241.22
2022-12-27T13:14:22.995Z,101239.63
2022-12-27T13:16:49.358Z,101235.53
2022-12-27T13:19:15.744Z,101240.16
2022-12-27T13:21:42.074Z,101231.19
2022-12-27T13:24:08.520Z,101234.50
2022-12-27T13:26:35.764Z,101229.50
2022-12-27T13:29:02.101Z,101228.41
2022-12-27T13:33:59.670Z,101236.81
2022-12-27T13:36:29.735Z,101231.97
2022-12-27T13:38:56.048Z,101232.19
2022-12-27T13:43:54.768Z,101250.25
2022-12-27T13:46:21.121Z,101250.31
2022-12-27T13:48:47.440Z,101252.78
2022-12-27T13:51:13.815Z,101258.88
2022-12-27T13:53:40.197Z,101239.28
2022-12-27T13:58:39.770Z,101254.22
2022-12-27T14:01:06.179Z,101243.41
2022-12-27T14:03:32.628Z,101250.91
2022-12-27T14:06:01.004Z,101242.59
2022-12-27T14:08:27.318Z,101238.31
2022-12-27T14:11:00.535Z,101241.72
2022-12-27T14:13:27.540Z,101237.84
2022-12-27T14:15:53.896Z,101250.47
2022-12-27T14:18:20.235Z,101253.16
2022-12-27T14:20:46.564Z,101249.94
2022-12-27T14:23:12.880Z,101248.38
2022-12-27T14:25:39.200Z,101253.31
2022-12-27T14:28:05.599Z,101251.16
2022-12-27T14:30:31.906Z,101252.75
2022-12-27T14:32:58.265Z,101262.75
2022-12-27T14:35:24.615Z,101263.09
2022-12-27T14:37:50.960Z,101256.19
2022-12-27T14:40:17.567Z,101257.00
2022-12-27T14:42:47.619Z,101263.22
2022-12-27T14:45:14.275Z,101262.59
2022-12-27T14:47:40.633Z,101264.50
2022-12-27T14:50:06.941Z,101264.50
2022-12-27T14:52:33.723Z,101262.28
2022-12-27T14:55:00.048Z,101271.50
2022-12-27T14:59:57.640Z,101278.78
2022-12-27T15:02:24.129Z,101277.78
2022-12-27T15:04:50.753Z,101282.03
2022-12-27T15:07:17.074Z,101282.00
2022-12-27T15:09:43.518Z,101269.91
2022-12-27T15:12:09.880Z,101277.22
2022-12-27T15:14:36.211Z,101285.28
2022-12-27T15:17:05.690Z,101281.00
2022-12-27T15:19:32.009Z,101283.72
2022-12-27T15:21:58.317Z,101285.09
2022-12-27T15:24:24.803Z,101281.22
2022-12-27T15:26:51.140Z,101282.03
2022-12-27T15:31:49.656Z,101281.66
2022-12-27T15:34:16.098Z,101277.72
2022-12-27T15:36:42.424Z,101273.03
2022-12-27T15:39:08.736Z,101272.50
2022-12-27T15:41:35.102Z,101264.19
2022-12-27T15:44:01.465Z,101275.38
2022-12-27T15:46:34.106Z,101263.53
2022-12-27T15:49:05.332Z,101272.44
2022-12-27T15:51:31.743Z,101276.03
2022-12-27T15:53:58.055Z,101284.94
2022-12-27T15:56:24.425Z,101282.97
2022-12-27T15:58:50.893Z,101273.22
2022-12-27T16:01:25.237Z,101282.41
2022-12-27T16:03:52.273Z,101292.72
2022-12-27T16:06:18.592Z,101297.13
2022-12-27T16:08:44.934Z,101297.16
2022-12-27T16:11:11.247Z,101301.91
2022-12-27T16:13:41.890Z,101303.00
2022-12-27T16:16:09.342Z,101298.00
2022-12-27T16:18:35.660Z,101296.09
2022-12-27T16:21:02.964Z,101300.28
2022-12-27T16:23:29.792Z,101300.28
2022-12-27T16:25:56.142Z,101300.03
2022-12-27T16:28:23.999Z,101300.88
2022-12-27T16:30:50.405Z,101293.09
2022-12-27T16:33:16.751Z,101296.72
2022-12-27T16:35:43.097Z,101288.19
2022-12-27T16:38:09.608Z,101288.16
2022-12-27T16:40:35.977Z,101290.38
2022-12-27T16:43:02.302Z,101299.78
2022-12-27T16:45:28.987Z,101294.81
2022-12-27T16:47:55.297Z,101298.69
2022-12-27T16:50:21.612Z,101300.63
2022-12-27T16:52:48.088Z,101313.91
2022-12-27T16:55:14.432Z,101313.62
2022-12-27T16:57:43.947Z,101310.03
2022-12-27T17:00:10.974Z,101310.03
2022-12-27T17:02:37.403Z,101306.97
2022-12-27T17:05:04.809Z,101307.25
2022-12-27T17:07:31.142Z,101308.66
2022-12-27T17:09:57.444Z,101303.38
2022-12-27T17:12:23.884Z,101297.31
2022-12-27T17:14:50.185Z,101299.50
2022-12-27T17:17:16.505Z,101302.53
2022-12-27T17:19:43.217Z,101296.19
2022-12-27T17:22:09.555Z,101291.50
2022-12-27T17:24:35.953Z,101287.63
2022-12-27T17:27:02.300Z,101300.34
2022-12-27T17:29:30.000Z,101302.56
2022-12-27T17:31:56.463Z,101298.91
2022-12-27T17:34:22.838Z,101301.16
2022-12-27T17:36:49.192Z,101289.56
2022-12-27T17:39:15.505Z,101291.22
2022-12-27T17:42:00.645Z,101298.69
2022-12-27T17:44:39.080Z,101297.84
2022-12-27T17:47:10.387Z,101293.69
2022-12-27T17:49:41.449Z,101286.50
2022-12-27T17:52:26.604Z,101292.56
2022-12-27T17:55:11.476Z,101294.50
2022-12-27T17:57:55.881Z,101299.78
2022-12-27T18:00:22.656Z,101287.09
2022-12-27T18:02:49.983Z,101291.78
2022-12-27T18:05:16.372Z,101287.34
2022-12-27T18:07:42.704Z,101293.16
2022-12-27T18:10:09.031Z,101290.97
2022-12-27T18:12:39.047Z,101289.03
2022-12-27T18:15:05.365Z,101296.19
2022-12-27T18:17:31.684Z,101294.56
2022-12-27T18:20:02.151Z,101293.72
2022-12-27T18:22:29.857Z,101287.91
2022-12-27T18:24:56.319Z,101283.22
2022-12-27T18:27:22.635Z,101287.38
2022-12-27T18:29:49.046Z,101277.41
2022-12-27T18:32:15.389Z,101283.19
2022-12-27T18:34:41.740Z,101296.47
2022-12-27T18:37:08.055Z,101287.09
2022-12-27T18:39:34.366Z,101296.47
2022-12-27T18:42:00.783Z,101290.69
2022-12-27T18:44:27.909Z,101286.81
2022-12-27T18:46:54.343Z,101292.34
2022-12-27T18:49:21.017Z,101294.25
2022-12-27T18:51:47.408Z,101280.72
2022-12-27T18:54:13.733Z,101287.66
2022-12-27T18:56:40.050Z,101282.38
2022-12-27T18:59:06.358Z,101277.97
2022-12-27T19:01:32.887Z,101290.66
2022-12-27T19:03:59.232Z,101273.53
2022-12-27T19:06:25.630Z,101276.00
2022-12-27T19:08:51.950Z,101278.78
2022-12-27T19:11:18.317Z,101273.81
2022-12-27T19:13:44.729Z,101267.44
2022-12-27T19:16:11.105Z,101270.47
2022-12-27T19:18:38.494Z,101279.88
2022-12-27T19:21:04.945Z,101274.34
2022-12-27T19:23:31.316Z,101268.00
2022-12-27T19:25:57.633Z,101268.28
2022-12-27T19:28:23.972Z,101276.84
2022-12-27T19:30:51.645Z,101272.97
2022-12-27T19:33:21.108Z,101277.37
2022-12-27T19:35:47.432Z,101270.47
2022-12-27T19:38:13.746Z,101276.84
2022-12-27T19:40:40.087Z,101275.44
2022-12-27T19:43:06.403Z,101269.91
2022-12-27T19:45:32.913Z,101282.09
2022-12-27T19:47:59.299Z,101275.72
2022-12-27T19:50:25.660Z,101276.84
2022-12-27T19:52:52.424Z,101280.13
2022-12-27T19:55:18.741Z,101279.62
2022-12-27T19:57:45.038Z,101278.50
2022-12-27T20:00:12.745Z,101271.59
2022-12-27T20:02:39.243Z,101270.78
2022-12-27T20:05:05.637Z,101275.19
2022-12-27T20:07:31.943Z,101269.66
2022-12-27T20:09:58.244Z,101282.13
2022-12-27T20:12:24.610Z,101280.44
2022-12-27T20:14:51.040Z,101277.69
2022-12-27T20:17:17.360Z,101280.19
2022-12-27T20:19:43.687Z,101272.97
2022-12-27T20:22:09.983Z,101277.16
2022-12-27T20:24:37.174Z,101279.62
2022-12-27T20:27:03.491Z,101275.22
2022-12-27T20:29:30.455Z,101282.09
2022-12-27T20:32:02.048Z,101283.44
2022-12-27T20:34:28.456Z,101273.50
2022-12-27T20:36:55.547Z,101280.13
2022-12-27T20:39:22.401Z,101283.41
2022-12-27T20:41:48.737Z,101283.69
2022-12-27T20:44:15.144Z,101273.72
2022-12-27T20:46:41.537Z,101268.47
2022-12-27T20:49:07.926Z,101268.69
2022-12-27T20:51:34.259Z,101266.81
2022-12-27T20:54:00.618Z,101273.97
2022-12-27T20:56:26.955Z,101267.87
2022-12-27T20:58:53.318Z,101269.25
2022-12-27T21:01:19.741Z,101266.69
2022-12-27T21:03:46.247Z,101259.81
2022-12-27T21:06:12.599Z,101251.53
2022-12-27T21:08:46.675Z,101266.09
2022-12-27T21:11:15.634Z,101253.69
2022-12-27T21:13:41.948Z,101244.03
2022-12-27T21:16:08.251Z,101245.84
2022-12-27T21:18:34.632Z,101244.00
2022-12-27T21:21:00.993Z,101238.47
2022-12-27T21:23:27.332Z,101237.09
2022-12-27T21:25:53.646Z,101237.41
2022-12-27T21:28:19.974Z,101234.69
2022-12-27T21:30:46.323Z,101239.16
2022-12-27T21:33:12.705Z,101238.88
2022-12-27T21:35:39.094Z,101235.03
2022-12-27T21:38:05.423Z,101237.47
2022-12-27T21:40:31.757Z,101234.72
2022-12-27T21:42:58.082Z,101227.56
2022-12-27T21:45:24.394Z,101219.87
2022-12-27T21:47:51.709Z,101226.22
2022-12-27T21:50:18.032Z,101222.63
2022-12-27T21:52:44.378Z,101214.66
2022-12-27T21:55:10.746Z,101204.69
2022-12-27T21:57:37.065Z,101208.56
2022-12-27T22:00:04.306Z,101211.34
2022-12-27T22:02:30.749Z,101204.44
2022-12-27T22:04:57.186Z,101205.00
2022-12-27T22:07:23.494Z,101202.50
2022-12-27T22:09:49.933Z,101206.91
2022-12-27T22:12:16.233Z,101202.75
2022-12-27T22:14:42.896Z,101200.56
2022-12-27T22:17:09.197Z,101193.09
2022-12-27T22:19:35.553Z,101195.53
2022-12-27T22:22:01.889Z,101186.75
2022-12-27T22:24:28.197Z,101190.34
2022-12-27T22:26:54.558Z,101189.50
2022-12-27T22:29:21.856Z,101184.84
2022-12-27T22:31:48.218Z,101196.69
2022-12-27T22:34:14.639Z,101187.31
2022-12-27T22:36:40.992Z,101183.44
2022-12-27T22:39:07.384Z,101176.84
2022-12-27T22:41:35.149Z,101187.84
2022-12-27T22:44:01.477Z,101184.81
2022-12-27T22:46:28.407Z,101179.81
2022-12-27T22:48:54.801Z,101187.00
2022-12-27T22:51:21.160Z,101188.38
2022-12-27T22:53:47.501Z,101185.59
2022-12-27T22:56:14.085Z,101193.81
2022-12-27T22:58:40.428Z,101182.22
2022-12-27T23:01:06.732Z,101185.81
2022-12-27T23:03:33.056Z,101190.78
2022-12-27T23:05:59.447Z,101185.56
2022-12-27T23:08:25.784Z,101181.41
2022-12-27T23:10:52.109Z,101185.56
2022-12-27T23:13:22.301Z,101170.69
2022-12-27T23:15:48.987Z,101178.41
2022-12-27T23:18:15.321Z,101167.09
2022-12-27T23:21:19.063Z,101163.22
2022-12-27T23:23:27.975Z,101162.63
2022-12-27T23:25:54.717Z,101155.19
2022-12-27T23:28:23.038Z,101148.87
2022-12-27T23:30:49.410Z,101138.16
2022-12-27T23:33:15.721Z,101131.56
2022-12-27T23:35:42.113Z,101126.03
2022-12-27T23:38:08.448Z,101127.16
2022-12-27T23:40:34.792Z,101114.44
2022-12-27T23:43:32.859Z,101111.66
2022-12-27T23:45:47.454Z,101099.50
2022-12-27T23:48:13.770Z,101105.84
2022-12-27T23:50:40.093Z,101113.88
2022-12-27T23:53:06.440Z,101109.72
2022-12-27T23:55:32.756Z,101107.25
2022-12-27T23:57:59.081Z,101101.19
